Portada
METAR-TAF:

METAR-TAF

Aeroports :

Moore County Airport

Pinehurst-Southern Pines, Carolina del Nord, Estats Units d'Amèrica

latitud: 35-14N, longitud: 079-24W, altitud: 141 m

Observació

L'informe es va fer fa 1 hora i 8 minuts, a les 15:56 UTC
Vent 8 kt del Oest amb ràfegues de 15 kt, variant entre Sud-Oest i Oest/Nord-Oest
Temperatura 4°C
Humitat 70%
Pressió 1005 hPa
Visibilitat: 16.1 km
Cel ennuvolat a una alçada de 2400 ft

METAR: KSOP 161556Z AUTO 26008G15KT 220V290 10SM BKN024 04/M01 A2969 RMK AO2 SLP061 T00391011 PNO $

Hora: 12:04 (17:04 UTC)


TAF: manca

Observacions i pronòstics meteorològics de més de 4000 aeroports (METAR i TAF).

Les estacions disponibles són els punts grocs i vermells al mapa.

Posi el ratolí al punt desitjat per veure el nom de l'estació.

Feu clic per veure les observacions i els pronòstics meteorològics.

Per canviar el mapa: feu clic els botons verds amb una creu de color negre per apropar; al botó verd amb un guió per allunyar la imatge; o en les fletxes verdes per a mapes adjacents.


METAR-TAF: